Time;durP1;ratioP1;P1;durP2;ratioP2;P2;SDS_P1;SDS_P2;PMS_P1;PMS_P2;Temp;Humidity;BMP_temperature;BMP_pressure;BME280_temperature;BME280_humidity;BME280_pressure;Samples;Min_cycle;Max_cycle;Signal;HPM_P1;HPM_P2
2022/07/02 00:01:13;;;;;;;0.60;0.60;;;;;;;;;;4929701;29;20526;-75
2022/07/02 00:03:40;;;;;;;0.87;0.87;;;;;;;;;;4928646;29;20451;-75
2022/07/02 00:06:07;;;;;;;0.67;0.67;;;;;;;;;;4930734;29;20436;-76
2022/07/02 00:08:33;;;;;;;0.63;0.63;;;;;;;;;;4930454;29;20539;-76
2022/07/02 00:11:02;;;;;;;0.60;0.60;;;;;;;;;;4934482;29;20436;-75
2022/07/02 00:13:28;;;;;;;0.80;0.80;;;;;;;;;;4934744;29;20506;-76
2022/07/02 00:15:55;;;;;;;2.43;2.03;;;;;;;;;;4934958;29;20797;-76
2022/07/02 00:18:21;;;;;;;9.17;2.60;;;;;;;;;;4933932;29;20526;-76
2022/07/02 00:20:47;;;;;;;4.77;2.77;;;;;;;;;;4936434;29;20449;-77
2022/07/02 00:23:14;;;;;;;6.13;3.40;;;;;;;;;;4936291;29;20427;-76
2022/07/02 00:25:43;;;;;;;2.50;2.40;;;;;;;;;;4935704;29;20435;-77
2022/07/02 00:28:14;;;;;;;1.83;1.73;;;;;;;;;;4936073;29;20518;-76
2022/07/02 00:30:41;;;;;;;1.70;0.70;;;;;;;;;;4934334;29;20427;-76
2022/07/02 00:33:10;;;;;;;1.00;1.00;;;;;;;;;;4934922;29;20504;-76
2022/07/02 00:35:36;;;;;;;1.67;1.60;;;;;;;;;;4933476;29;20494;-76
2022/07/02 00:38:02;;;;;;;0.80;0.80;;;;;;;;;;4936047;29;20467;-76
2022/07/02 00:40:30;;;;;;;0.70;0.70;;;;;;;;;;4934786;29;20444;-76
2022/07/02 00:42:56;;;;;;;0.80;0.80;;;;;;;;;;4935613;29;20430;-75
2022/07/02 00:45:22;;;;;;;4.27;0.80;;;;;;;;;;4935190;29;20794;-75
2022/07/02 00:47:49;;;;;;;3.10;1.30;;;;;;;;;;4934931;29;20419;-76
2022/07/02 00:50:15;;;;;;;3.10;1.57;;;;;;;;;;4933524;29;20440;-75
2022/07/02 00:52:41;;;;;;;1.20;1.20;;;;;;;;;;4932375;29;20446;-76
2022/07/02 00:55:07;;;;;;;2.00;1.10;;;;;;;;;;4933191;29;20483;-76
2022/07/02 00:57:33;;;;;;;1.10;1.10;;;;;;;;;;4934083;29;20184;-76
2022/07/02 00:59:59;;;;;;;2.00;2.00;;;;;;;;;;4934246;29;20434;-75
2022/07/02 01:02:26;;;;;;;1.10;1.10;;;;;;;;;;4928843;29;20519;-76
2022/07/02 01:04:53;;;;;;;1.27;1.27;;;;;;;;;;4933741;29;20447;-75
2022/07/02 01:07:20;;;;;;;6.53;1.27;;;;;;;;;;4934545;29;20440;-75
2022/07/02 01:12:33;;;;;;;2.17;1.97;;;;;;;;;;4933514;29;20475;-76
2022/07/02 01:14:59;;;;;;;1.70;1.70;;;;;;;;;;4932124;29;20900;-75
2022/07/02 01:17:26;;;;;;;1.77;1.77;;;;;;;;;;4932634;29;20948;-76
2022/07/02 01:19:52;;;;;;;7.13;1.70;;;;;;;;;;4934027;29;21035;-75
2022/07/02 01:22:19;;;;;;;3.47;1.80;;;;;;;;;;4929072;29;20434;-75
2022/07/02 01:24:47;;;;;;;2.80;2.60;;;;;;;;;;4933891;29;20439;-77
2022/07/02 01:27:13;;;;;;;3.90;1.60;;;;;;;;;;4932545;29;20502;-75
2022/07/02 01:29:39;;;;;;;1.13;1.13;;;;;;;;;;4934480;29;20455;-75
2022/07/02 01:32:06;;;;;;;0.90;0.90;;;;;;;;;;4933298;29;20432;-75
2022/07/02 01:34:36;;;;;;;0.90;0.90;;;;;;;;;;4933376;29;20486;-75
2022/07/02 01:37:03;;;;;;;1.67;1.57;;;;;;;;;;4932572;29;20476;-75
2022/07/02 01:39:29;;;;;;;2.00;1.17;;;;;;;;;;4931941;29;20451;-76
2022/07/02 01:41:55;;;;;;;3.70;1.30;;;;;;;;;;4934714;29;20849;-75
2022/07/02 01:44:20;;;;;;;2.40;0.97;;;;;;;;;;4932833;29;20897;-75
2022/07/02 01:46:47;;;;;;;1.13;1.13;;;;;;;;;;4932734;29;20967;-75
2022/07/02 01:49:13;;;;;;;4.13;1.10;;;;;;;;;;4933756;29;20451;-75
2022/07/02 01:51:39;;;;;;;4.83;1.00;;;;;;;;;;4934538;29;20424;-76
2022/07/02 01:54:07;;;;;;;1.10;1.10;;;;;;;;;;4934451;29;20475;-75
2022/07/02 01:56:33;;;;;;;3.50;1.30;;;;;;;;;;4934396;29;20560;-76
2022/07/02 01:58:59;;;;;;;0.90;0.90;;;;;;;;;;4933234;29;20534;-77
2022/07/02 02:01:25;;;;;;;1.10;1.10;;;;;;;;;;4932921;29;20584;-75
2022/07/02 02:03:52;;;;;;;1.67;1.67;;;;;;;;;;4933817;29;20530;-75
2022/07/02 02:06:17;;;;;;;2.67;1.00;;;;;;;;;;4933172;29;20430;-76
2022/07/02 02:08:43;;;;;;;1.20;1.20;;;;;;;;;;4916866;29;20431;-76
2022/07/02 02:11:10;;;;;;;1.53;1.43;;;;;;;;;;4934502;29;20429;-76
2022/07/02 02:13:36;;;;;;;1.30;1.30;;;;;;;;;;4932616;29;20491;-76
2022/07/02 02:16:02;;;;;;;1.43;1.33;;;;;;;;;;4931548;29;20427;-76
2022/07/02 02:18:28;;;;;;;0.80;0.80;;;;;;;;;;4932517;29;20443;-76
2022/07/02 02:20:54;;;;;;;0.90;0.90;;;;;;;;;;4932851;29;20439;-76
2022/07/02 02:23:19;;;;;;;0.80;0.80;;;;;;;;;;4934189;29;20435;-75
2022/07/02 02:25:45;;;;;;;1.70;0.90;;;;;;;;;;4933447;29;20427;-75
2022/07/02 02:28:11;;;;;;;1.03;1.03;;;;;;;;;;4931695;29;21104;-75
2022/07/02 02:30:37;;;;;;;0.90;0.90;;;;;;;;;;4933119;29;20423;-77
2022/07/02 02:33:03;;;;;;;4.33;1.10;;;;;;;;;;4932014;29;20449;-76
2022/07/02 02:35:29;;;;;;;0.93;0.93;;;;;;;;;;4930474;29;20527;-75
2022/07/02 02:37:55;;;;;;;3.10;2.00;;;;;;;;;;4930964;29;20463;-75
2022/07/02 02:40:21;;;;;;;3.33;0.93;;;;;;;;;;4933206;29;20946;-76
2022/07/02 02:42:47;;;;;;;1.10;1.10;;;;;;;;;;4933714;29;20423;-76
2022/07/02 02:45:13;;;;;;;1.10;1.10;;;;;;;;;;4933184;29;20432;-75
2022/07/02 02:47:39;;;;;;;0.73;0.70;;;;;;;;;;4931544;29;20443;-77
2022/07/02 02:50:05;;;;;;;2.60;1.10;;;;;;;;;;4932617;29;20447;-77
2022/07/02 02:52:31;;;;;;;1.17;1.00;;;;;;;;;;4931261;29;20978;-76
2022/07/02 02:54:58;;;;;;;1.57;1.10;;;;;;;;;;4932094;29;20558;-76
2022/07/02 02:57:24;;;;;;;2.70;1.13;;;;;;;;;;4933689;29;20451;-77
2022/07/02 02:59:50;;;;;;;0.97;0.97;;;;;;;;;;4930735;29;20432;-78
2022/07/02 03:02:16;;;;;;;1.13;0.90;;;;;;;;;;4930234;29;20487;-76
2022/07/02 03:04:42;;;;;;;0.93;0.93;;;;;;;;;;4930417;29;20443;-77
2022/07/02 03:07:08;;;;;;;3.07;1.30;;;;;;;;;;4929989;29;20427;-76
2022/07/02 03:09:34;;;;;;;2.47;0.93;;;;;;;;;;4932436;29;20485;-76
2022/07/02 03:12:00;;;;;;;1.27;0.83;;;;;;;;;;4931140;29;20440;-76
2022/07/02 03:14:26;;;;;;;5.23;1.17;;;;;;;;;;4913401;29;20849;-77
2022/07/02 03:16:52;;;;;;;2.33;0.90;;;;;;;;;;4931440;29;20475;-77
2022/07/02 03:19:18;;;;;;;1.23;0.60;;;;;;;;;;4930554;29;20456;-76
2022/07/02 03:21:43;;;;;;;1.17;1.10;;;;;;;;;;4931980;29;20821;-76
2022/07/02 03:24:09;;;;;;;2.20;0.80;;;;;;;;;;4932188;29;20502;-75
2022/07/02 03:26:35;;;;;;;0.80;0.80;;;;;;;;;;4930532;29;20440;-76
2022/07/02 03:29:01;;;;;;;5.20;1.03;;;;;;;;;;4931317;29;20230;-77
2022/07/02 03:31:27;;;;;;;1.03;1.03;;;;;;;;;;4929190;29;20464;-77
2022/07/02 03:33:53;;;;;;;2.43;1.07;;;;;;;;;;4930676;29;20479;-75
2022/07/02 03:36:19;;;;;;;2.63;0.60;;;;;;;;;;4932288;29;20435;-75
2022/07/02 03:38:45;;;;;;;0.87;0.87;;;;;;;;;;4932811;29;20610;-77
2022/07/02 03:41:11;;;;;;;2.20;1.10;;;;;;;;;;4929811;29;20535;-77
2022/07/02 03:43:37;;;;;;;4.20;1.43;;;;;;;;;;4932888;29;20435;-76
2022/07/02 03:46:03;;;;;;;1.30;1.30;;;;;;;;;;4930988;29;20948;-76
2022/07/02 03:48:29;;;;;;;2.00;1.90;;;;;;;;;;4930376;29;20435;-76
2022/07/02 03:50:55;;;;;;;1.97;1.87;;;;;;;;;;4928563;29;20475;-75
2022/07/02 03:53:21;;;;;;;2.00;2.00;;;;;;;;;;4932226;29;20435;-78
2022/07/02 03:55:47;;;;;;;11.50;1.97;;;;;;;;;;4930863;29;20435;-77
2022/07/02 03:58:13;;;;;;;5.63;1.80;;;;;;;;;;4930707;29;20432;-77
2022/07/02 04:00:39;;;;;;;1.73;1.73;;;;;;;;;;4929185;29;20435;-79
2022/07/02 04:03:05;;;;;;;15.73;2.73;;;;;;;;;;4914101;29;20936;-81
2022/07/02 04:05:31;;;;;;;1.20;1.20;;;;;;;;;;4928115;29;20479;-80
2022/07/02 04:07:57;;;;;;;2.83;1.60;;;;;;;;;;4930637;29;20443;-80
2022/07/02 04:10:23;;;;;;;2.87;0.93;;;;;;;;;;4930869;29;20900;-81
2022/07/02 04:12:49;;;;;;;0.87;0.87;;;;;;;;;;4929626;29;20994;-81
2022/07/02 04:15:15;;;;;;;5.73;0.90;;;;;;;;;;4931168;29;20892;-80
2022/07/02 04:17:41;;;;;;;0.93;0.93;;;;;;;;;;4929931;29;20440;-79
2022/07/02 04:20:07;;;;;;;2.67;0.80;;;;;;;;;;4930800;29;20444;-80
2022/07/02 04:22:33;;;;;;;2.63;1.20;;;;;;;;;;4927495;29;20805;-77
2022/07/02 04:24:59;;;;;;;6.37;1.20;;;;;;;;;;4932123;29;20423;-77
2022/07/02 04:27:25;;;;;;;1.37;1.20;;;;;;;;;;4926348;29;20523;-76
2022/07/02 04:29:51;;;;;;;1.47;0.90;;;;;;;;;;4926507;29;20436;-79
2022/07/02 04:32:17;;;;;;;4.57;0.97;;;;;;;;;;4927369;29;20493;-77
2022/07/02 04:34:43;;;;;;;1.63;1.50;;;;;;;;;;4926865;29;20483;-78
2022/07/02 04:37:09;;;;;;;1.30;1.30;;;;;;;;;;4930714;29;20987;-80
2022/07/02 04:39:35;;;;;;;14.23;1.17;;;;;;;;;;4931043;29;20501;-80
2022/07/02 04:42:01;;;;;;;0.90;0.90;;;;;;;;;;4929825;29;20447;-78
2022/07/02 04:44:27;;;;;;;3.97;1.00;;;;;;;;;;4927804;29;20448;-76
2022/07/02 04:46:53;;;;;;;7.00;1.13;;;;;;;;;;4930698;29;20436;-80
2022/07/02 04:49:19;;;;;;;1.23;1.23;;;;;;;;;;4931887;29;20432;-77
2022/07/02 04:51:45;;;;;;;1.50;1.40;;;;;;;;;;4929865;29;20435;-78
2022/07/02 04:54:11;;;;;;;4.97;1.57;;;;;;;;;;4929022;29;20483;-81
2022/07/02 04:56:37;;;;;;;2.20;1.20;;;;;;;;;;4932637;29;20503;-80
2022/07/02 04:59:03;;;;;;;4.77;1.50;;;;;;;;;;4930122;29;20431;-78
2022/07/02 05:01:29;;;;;;;1.43;1.30;;;;;;;;;;4934777;29;20510;-81
2022/07/02 05:03:55;;;;;;;3.30;1.30;;;;;;;;;;4925449;29;20466;-81
2022/07/02 05:06:22;;;;;;;10.10;1.00;;;;;;;;;;4933638;29;20911;-79
2022/07/02 05:08:49;;;;;;;3.43;1.30;;;;;;;;;;4934940;29;20423;-80
2022/07/02 05:11:16;;;;;;;1.40;1.30;;;;;;;;;;4930766;29;20439;-80
2022/07/02 05:13:44;;;;;;;2.40;1.10;;;;;;;;;;4933483;29;20526;-80
2022/07/02 05:16:11;;;;;;;1.00;1.00;;;;;;;;;;4932609;29;20451;-78
2022/07/02 05:18:37;;;;;;;1.60;1.50;;;;;;;;;;4931925;29;20443;-75
2022/07/02 05:21:04;;;;;;;4.20;0.90;;;;;;;;;;4934202;29;20431;-80
2022/07/02 05:23:30;;;;;;;2.03;1.00;;;;;;;;;;4932351;29;20947;-80
2022/07/02 05:25:56;;;;;;;2.60;0.90;;;;;;;;;;4932539;29;20792;-81
2022/07/02 05:28:23;;;;;;;4.10;1.07;;;;;;;;;;4932004;29;20797;-81
2022/07/02 05:30:49;;;;;;;1.50;1.40;;;;;;;;;;4932090;29;20435;-81
2022/07/02 05:33:15;;;;;;;1.10;1.10;;;;;;;;;;4930009;29;20452;-81
2022/07/02 05:35:41;;;;;;;3.10;1.30;;;;;;;;;;4929874;29;20838;-79
2022/07/02 05:38:07;;;;;;;0.93;0.93;;;;;;;;;;4934401;29;20533;-80
2022/07/02 05:40:33;;;;;;;2.00;1.00;;;;;;;;;;4931575;29;20453;-80
2022/07/02 05:42:59;;;;;;;1.53;1.10;;;;;;;;;;4930323;29;20522;-81
2022/07/02 05:45:25;;;;;;;2.10;1.10;;;;;;;;;;4933275;29;20463;-81
2022/07/02 05:47:51;;;;;;;1.27;1.13;;;;;;;;;;4931278;29;20446;-78
2022/07/02 05:50:17;;;;;;;2.03;1.93;;;;;;;;;;4932649;29;20799;-80
2022/07/02 05:52:43;;;;;;;4.63;1.00;;;;;;;;;;4930472;29;20483;-81
2022/07/02 05:55:09;;;;;;;1.53;1.40;;;;;;;;;;4933395;29;21054;-81
2022/07/02 05:57:35;;;;;;;1.33;1.03;;;;;;;;;;4932499;29;21228;-80
2022/07/02 06:00:01;;;;;;;1.10;1.10;;;;;;;;;;4929550;29;20443;-79
2022/07/02 06:02:27;;;;;;;1.20;1.20;;;;;;;;;;4930660;29;20490;-79
2022/07/02 06:04:53;;;;;;;2.10;1.10;;;;;;;;;;4928823;29;20534;-77
2022/07/02 06:10:04;;;;;;;1.10;1.10;;;;;;;;;;4934422;29;20488;-69
2022/07/02 06:12:30;;;;;;;5.47;1.00;;;;;;;;;;4933616;29;20477;-70
2022/07/02 06:14:56;;;;;;;14.13;1.20;;;;;;;;;;4927619;29;20511;-69
2022/07/02 06:17:22;;;;;;;1.57;1.40;;;;;;;;;;4930499;29;20440;-77
2022/07/02 06:19:48;;;;;;;5.13;1.27;;;;;;;;;;4929160;29;20951;-78
2022/07/02 06:22:14;;;;;;;1.37;1.27;;;;;;;;;;4933807;29;20423;-77
2022/07/02 06:24:40;;;;;;;1.20;1.20;;;;;;;;;;4927945;29;21018;-77
2022/07/02 06:27:06;;;;;;;1.90;1.20;;;;;;;;;;4931134;29;20459;-80
2022/07/02 06:29:32;;;;;;;1.40;1.07;;;;;;;;;;4931932;29;20933;-76
2022/07/02 06:31:58;;;;;;;1.47;1.37;;;;;;;;;;4930885;29;20435;-79
2022/07/02 06:34:24;;;;;;;1.13;1.13;;;;;;;;;;4930488;29;20492;-79
2022/07/02 06:36:50;;;;;;;0.97;0.97;;;;;;;;;;4929986;29;22603;-75
2022/07/02 06:39:16;;;;;;;3.20;0.93;;;;;;;;;;4929395;29;20531;-77
2022/07/02 06:44:27;;;;;;;1.23;1.23;;;;;;;;;;4927985;29;21182;-80
2022/07/02 06:46:53;;;;;;;1.00;1.00;;;;;;;;;;4926758;29;20463;-79
2022/07/02 06:49:19;;;;;;;1.20;1.20;;;;;;;;;;4922831;29;20455;-76
2022/07/02 06:51:45;;;;;;;1.10;1.10;;;;;;;;;;4926796;29;20440;-76
2022/07/02 06:54:11;;;;;;;1.10;1.10;;;;;;;;;;4930927;29;20534;-77
2022/07/02 06:56:37;;;;;;;1.30;1.30;;;;;;;;;;4929969;29;20448;-75
2022/07/02 06:59:04;;;;;;;1.07;1.07;;;;;;;;;;4931980;29;20440;-76
2022/07/02 07:01:30;;;;;;;0.93;0.93;;;;;;;;;;4928977;29;20530;-79
2022/07/02 07:03:56;;;;;;;4.67;0.93;;;;;;;;;;4931618;29;20431;-80
2022/07/02 07:06:26;;;;;;;3.13;1.03;;;;;;;;;;4931227;29;20535;-77
2022/07/02 07:08:55;;;;;;;1.30;1.30;;;;;;;;;;4932332;29;20423;-81
2022/07/02 07:11:21;;;;;;;2.90;1.40;;;;;;;;;;4931493;29;20470;-76
2022/07/02 07:13:48;;;;;;;2.40;0.87;;;;;;;;;;4928552;29;20827;-76
2022/07/02 07:16:14;;;;;;;4.10;1.70;;;;;;;;;;4932444;29;20476;-78
2022/07/02 07:18:40;;;;;;;1.20;1.20;;;;;;;;;;4927759;29;20466;-78
2022/07/02 07:21:06;;;;;;;1.17;1.17;;;;;;;;;;4925277;29;20957;-77
2022/07/02 07:23:32;;;;;;;1.03;1.03;;;;;;;;;;4931204;29;20436;-76
2022/07/02 07:25:58;;;;;;;3.47;1.30;;;;;;;;;;4927420;29;20432;-79
2022/07/02 07:28:27;;;;;;;2.50;1.40;;;;;;;;;;4928527;29;20461;-76
2022/07/02 07:30:56;;;;;;;0.97;0.97;;;;;;;;;;4929433;29;20491;-77
2022/07/02 07:33:22;;;;;;;4.27;1.20;;;;;;;;;;4927461;29;20974;-75
2022/07/02 07:35:48;;;;;;;0.80;0.80;;;;;;;;;;4926101;29;20530;-74
2022/07/02 07:38:14;;;;;;;1.47;1.47;;;;;;;;;;4926238;29;20472;-78
2022/07/02 07:40:40;;;;;;;1.60;1.00;;;;;;;;;;4930920;29;20526;-78
2022/07/02 07:43:06;;;;;;;0.60;0.60;;;;;;;;;;4931424;29;20432;-78
2022/07/02 07:45:31;;;;;;;1.17;1.17;;;;;;;;;;4929601;29;20435;-75
2022/07/02 07:47:57;;;;;;;1.77;0.93;;;;;;;;;;4929936;29;20424;-76
2022/07/02 07:50:23;;;;;;;1.00;1.00;;;;;;;;;;4928183;29;20618;-76
2022/07/02 07:52:49;;;;;;;0.67;0.67;;;;;;;;;;4929055;29;20432;-77
2022/07/02 07:55:15;;;;;;;0.90;0.90;;;;;;;;;;4929347;29;20498;-79
2022/07/02 07:57:41;;;;;;;0.57;0.57;;;;;;;;;;4930093;29;20440;-74
2022/07/02 08:00:07;;;;;;;1.23;0.80;;;;;;;;;;4931424;29;20486;-80
2022/07/02 08:02:33;;;;;;;0.67;0.63;;;;;;;;;;4926494;29;20443;-78
2022/07/02 08:04:59;;;;;;;0.73;0.73;;;;;;;;;;4928438;29;20441;-79
2022/07/02 08:07:25;;;;;;;1.07;0.73;;;;;;;;;;4928990;29;20931;-78
2022/07/02 08:09:53;;;;;;;1.03;1.00;;;;;;;;;;4929373;29;20450;-81
2022/07/02 08:12:21;;;;;;;1.00;1.00;;;;;;;;;;4931080;29;20916;-80
2022/07/02 08:14:47;;;;;;;0.93;0.93;;;;;;;;;;4929393;29;20540;-76
2022/07/02 08:17:13;;;;;;;0.50;0.50;;;;;;;;;;4926836;29;20471;-80
2022/07/02 08:19:38;;;;;;;0.80;0.80;;;;;;;;;;4930516;29;20925;-80
2022/07/02 08:22:05;;;;;;;0.60;0.60;;;;;;;;;;4928983;29;20436;-75
2022/07/02 08:24:30;;;;;;;13.33;1.13;;;;;;;;;;4927470;29;20442;-73
2022/07/02 08:26:56;;;;;;;0.53;0.53;;;;;;;;;;4929610;29;20928;-79
2022/07/02 08:29:22;;;;;;;3.20;0.80;;;;;;;;;;4925963;29;20490;-76
2022/07/02 08:31:48;;;;;;;0.80;0.80;;;;;;;;;;4929667;29;20944;-75
2022/07/02 08:34:14;;;;;;;0.73;0.60;;;;;;;;;;4934871;29;20479;-74
2022/07/02 08:36:40;;;;;;;1.10;0.70;;;;;;;;;;4926398;29;20457;-81
2022/07/02 08:39:06;;;;;;;0.90;0.90;;;;;;;;;;4932200;29;20535;-78
2022/07/02 08:41:33;;;;;;;9.27;1.00;;;;;;;;;;4936150;29;20547;-77
2022/07/02 08:44:00;;;;;;;0.80;0.80;;;;;;;;;;4934948;29;20444;-79
2022/07/02 08:46:26;;;;;;;0.87;0.87;;;;;;;;;;4934409;29;20512;-80
2022/07/02 08:48:53;;;;;;;0.70;0.70;;;;;;;;;;4930993;29;20428;-69
2022/07/02 08:51:21;;;;;;;0.50;0.50;;;;;;;;;;4935522;29;20435;-82
2022/07/02 08:53:47;;;;;;;0.60;0.60;;;;;;;;;;4933376;29;20486;-78
2022/07/02 08:56:17;;;;;;;0.83;0.83;;;;;;;;;;4930862;29;20534;-81
2022/07/02 08:58:44;;;;;;;0.93;0.93;;;;;;;;;;4929797;29;20444;-79
2022/07/02 09:01:11;;;;;;;3.50;0.80;;;;;;;;;;4928822;29;20436;-76
2022/07/02 09:03:38;;;;;;;1.27;0.43;;;;;;;;;;4928351;29;20796;-77
2022/07/02 09:06:07;;;;;;;0.70;0.70;;;;;;;;;;4932670;29;20998;-77
2022/07/02 09:08:34;;;;;;;3.77;1.20;;;;;;;;;;4932920;29;20439;-81
2022/07/02 09:11:03;;;;;;;0.87;0.87;;;;;;;;;;4933877;29;20447;-77
2022/07/02 09:13:29;;;;;;;1.03;0.73;;;;;;;;;;4931368;29;20454;-76
2022/07/02 09:15:55;;;;;;;0.63;0.63;;;;;;;;;;4932949;29;20439;-76
2022/07/02 09:18:22;;;;;;;0.63;0.60;;;;;;;;;;4933133;29;20514;-76
2022/07/02 09:20:48;;;;;;;0.60;0.60;;;;;;;;;;4932044;29;20515;-81
2022/07/02 09:23:20;;;;;;;0.70;0.70;;;;;;;;;;4933736;29;21061;-78
2022/07/02 09:25:47;;;;;;;0.67;0.67;;;;;;;;;;4933850;29;20597;-80
2022/07/02 09:28:13;;;;;;;0.50;0.50;;;;;;;;;;4932228;29;20494;-76
2022/07/02 09:30:39;;;;;;;3.80;0.70;;;;;;;;;;4933797;29;20912;-76
2022/07/02 09:33:31;;;;;;;2.40;1.00;;;;;;;;;;4924684;29;20446;-75
2022/07/02 09:35:58;;;;;;;0.67;0.67;;;;;;;;;;4919836;29;20554;-79
2022/07/02 09:38:24;;;;;;;0.63;0.63;;;;;;;;;;4930507;29;20471;-77
2022/07/02 09:40:54;;;;;;;0.50;0.50;;;;;;;;;;4932844;29;20506;-80
2022/07/02 09:43:25;;;;;;;0.60;0.60;;;;;;;;;;4933015;29;20436;-82
2022/07/02 09:45:51;;;;;;;0.60;0.60;;;;;;;;;;4934546;29;20424;-77
2022/07/02 09:48:18;;;;;;;0.50;0.50;;;;;;;;;;4934279;29;20432;-80
2022/07/02 09:50:44;;;;;;;0.60;0.60;;;;;;;;;;4931815;29;20802;-81
2022/07/02 09:53:12;;;;;;;0.77;0.50;;;;;;;;;;4932806;29;20990;-79
2022/07/02 09:55:38;;;;;;;0.40;0.40;;;;;;;;;;4932179;29;20573;-78
2022/07/02 09:58:04;;;;;;;1.70;0.57;;;;;;;;;;4933386;29;20867;-75
2022/07/02 10:00:32;;;;;;;0.50;0.50;;;;;;;;;;4933363;29;20846;-76
2022/07/02 10:02:58;;;;;;;2.47;0.83;;;;;;;;;;4932965;29;20443;-83
2022/07/02 10:05:26;;;;;;;0.47;0.47;;;;;;;;;;4930841;29;20440;-79
2022/07/02 10:07:56;;;;;;;0.70;0.70;;;;;;;;;;4933381;29;20452;-82
2022/07/02 10:10:36;;;;;;;0.50;0.50;;;;;;;;;;4933234;29;20431;-82
2022/07/02 10:13:02;;;;;;;0.67;0.67;;;;;;;;;;4932765;29;20427;-82
2022/07/02 10:15:31;;;;;;;1.07;0.70;;;;;;;;;;4932113;29;20551;-70
2022/07/02 10:17:59;;;;;;;0.60;0.60;;;;;;;;;;4933998;29;20424;-77
2022/07/02 10:20:25;;;;;;;0.53;0.53;;;;;;;;;;4931025;29;20447;-79
2022/07/02 10:22:51;;;;;;;0.50;0.50;;;;;;;;;;4931180;29;20436;-80
2022/07/02 10:25:20;;;;;;;1.67;0.50;;;;;;;;;;4931752;29;20443;-78
2022/07/02 10:27:47;;;;;;;1.77;1.00;;;;;;;;;;4933447;29;20935;-77
2022/07/02 10:30:17;;;;;;;0.60;0.60;;;;;;;;;;4929908;29;20950;-82
2022/07/02 10:32:55;;;;;;;1.90;0.70;;;;;;;;;;4931535;29;20479;-78
2022/07/02 10:35:23;;;;;;;0.53;0.53;;;;;;;;;;4927223;29;21208;-81
2022/07/02 10:37:55;;;;;;;1.17;0.60;;;;;;;;;;4930517;29;20475;-81
2022/07/02 10:40:21;;;;;;;0.40;0.40;;;;;;;;;;4930458;29;20543;-81
2022/07/02 10:42:48;;;;;;;0.50;0.50;;;;;;;;;;4931042;29;20603;-80
2022/07/02 10:45:15;;;;;;;0.57;0.57;;;;;;;;;;4932002;29;20448;-69
2022/07/02 10:47:58;;;;;;;0.40;0.40;;;;;;;;;;4932300;29;20526;-68
2022/07/02 10:50:26;;;;;;;0.60;0.60;;;;;;;;;;4930270;29;20522;-68
2022/07/02 10:52:52;;;;;;;3.10;2.90;;;;;;;;;;4932190;29;20507;-68
2022/07/02 10:55:31;;;;;;;0.70;0.70;;;;;;;;;;4933145;29;20482;-68
2022/07/02 10:57:57;;;;;;;0.70;0.70;;;;;;;;;;4933648;29;20415;-68
2022/07/02 11:00:41;;;;;;;2.70;0.50;;;;;;;;;;4929575;29;20436;-68
2022/07/02 11:03:27;;;;;;;0.60;0.60;;;;;;;;;;4933057;29;20435;-68
2022/07/02 11:05:56;;;;;;;0.80;0.80;;;;;;;;;;4932182;29;20439;-68
2022/07/02 11:08:35;;;;;;;0.70;0.70;;;;;;;;;;4931937;29;20443;-68
2022/07/02 11:11:01;;;;;;;0.97;0.60;;;;;;;;;;4930625;29;20443;-76
2022/07/02 11:13:34;;;;;;;0.50;0.50;;;;;;;;;;4933251;29;20428;-79
2022/07/02 11:16:00;;;;;;;0.70;0.70;;;;;;;;;;4931033;29;20964;-75
2022/07/02 11:18:28;;;;;;;0.50;0.50;;;;;;;;;;4932368;29;20436;-76
2022/07/02 11:20:54;;;;;;;1.00;0.50;;;;;;;;;;4932367;29;20430;-79
2022/07/02 11:23:20;;;;;;;0.50;0.50;;;;;;;;;;4932748;29;20439;-79
2022/07/02 11:25:46;;;;;;;0.70;0.70;;;;;;;;;;4932855;29;20442;-82
2022/07/02 11:28:13;;;;;;;2.87;0.80;;;;;;;;;;4931840;29;20452;-79
2022/07/02 11:30:39;;;;;;;0.60;0.60;;;;;;;;;;4928587;29;20464;-83
2022/07/02 11:33:15;;;;;;;0.50;0.50;;;;;;;;;;4929092;29;20488;-84
2022/07/02 11:35:50;;;;;;;0.70;0.70;;;;;;;;;;4931757;29;20486;-80
2022/07/02 11:38:16;;;;;;;0.67;0.67;;;;;;;;;;4930604;29;20481;-83
2022/07/02 11:40:42;;;;;;;0.67;0.67;;;;;;;;;;4932922;29;20431;-84
2022/07/02 11:43:18;;;;;;;0.50;0.50;;;;;;;;;;4932875;29;20567;-83
2022/07/02 11:45:44;;;;;;;0.40;0.40;;;;;;;;;;4929878;29;20452;-82
2022/07/02 11:48:20;;;;;;;0.60;0.60;;;;;;;;;;4931450;29;20439;-83
2022/07/02 11:50:55;;;;;;;0.67;0.67;;;;;;;;;;4931605;29;20498;-83
2022/07/02 11:53:21;;;;;;;1.80;0.80;;;;;;;;;;4932614;29;20474;-78
2022/07/02 11:55:47;;;;;;;0.60;0.60;;;;;;;;;;4930973;29;21030;-81
2022/07/02 11:58:13;;;;;;;0.60;0.60;;;;;;;;;;4932414;29;20560;-83
2022/07/02 12:00:39;;;;;;;1.00;0.50;;;;;;;;;;4932185;29;21000;-82
2022/07/02 12:03:12;;;;;;;0.77;0.77;;;;;;;;;;4932347;29;20435;-78
2022/07/02 12:05:49;;;;;;;0.80;0.77;;;;;;;;;;4931863;29;20187;-80
2022/07/02 12:08:15;;;;;;;1.97;0.80;;;;;;;;;;4930239;29;20799;-77
2022/07/02 12:10:41;;;;;;;0.80;0.80;;;;;;;;;;4932581;29;20526;-78
2022/07/02 12:13:11;;;;;;;0.93;0.80;;;;;;;;;;4931077;29;20917;-79
2022/07/02 12:15:49;;;;;;;0.60;0.60;;;;;;;;;;4931632;29;20483;-80
2022/07/02 12:18:17;;;;;;;0.70;0.70;;;;;;;;;;4932141;29;20475;-81
2022/07/02 12:20:43;;;;;;;0.53;0.53;;;;;;;;;;4932432;29;20424;-81
2022/07/02 12:23:09;;;;;;;2.23;0.70;;;;;;;;;;4930830;29;20439;-83
2022/07/02 12:25:44;;;;;;;0.57;0.57;;;;;;;;;;4931874;29;20420;-81
2022/07/02 12:30:55;;;;;;;0.50;0.50;;;;;;;;;;4931893;29;20419;-83
2022/07/02 12:33:34;;;;;;;0.60;0.60;;;;;;;;;;4930880;29;20444;-79
2022/07/02 12:36:01;;;;;;;0.90;0.50;;;;;;;;;;4930426;29;20486;-81
2022/07/02 12:38:28;;;;;;;0.50;0.50;;;;;;;;;;4931185;29;20463;-83
2022/07/02 12:41:00;;;;;;;0.60;0.60;;;;;;;;;;4929193;29;20434;-76
2022/07/02 12:43:26;;;;;;;0.80;0.70;;;;;;;;;;4931964;29;20446;-83
2022/07/02 12:45:52;;;;;;;0.70;0.57;;;;;;;;;;4931332;29;20459;-81
2022/07/02 12:48:19;;;;;;;0.60;0.60;;;;;;;;;;4931841;29;20427;-83
2022/07/02 12:50:46;;;;;;;0.50;0.50;;;;;;;;;;4932112;29;20431;-83
2022/07/02 12:53:16;;;;;;;0.73;0.73;;;;;;;;;;4930250;29;20444;-83
2022/07/02 12:55:43;;;;;;;0.60;0.50;;;;;;;;;;4930366;29;20999;-81
2022/07/02 12:58:10;;;;;;;0.80;0.80;;;;;;;;;;4930617;29;20951;-80
2022/07/02 13:00:38;;;;;;;0.87;0.87;;;;;;;;;;4931426;29;20439;-81
2022/07/02 13:03:06;;;;;;;0.50;0.50;;;;;;;;;;4930850;29;20435;-79
2022/07/02 13:05:33;;;;;;;2.90;0.57;;;;;;;;;;4931463;29;20955;-79
2022/07/02 13:07:59;;;;;;;0.60;0.60;;;;;;;;;;4932057;29;20427;-83
2022/07/02 13:10:26;;;;;;;0.90;0.90;;;;;;;;;;4931904;29;20431;-82
2022/07/02 13:12:52;;;;;;;0.70;0.70;;;;;;;;;;4930562;29;20794;-80
2022/07/02 13:15:18;;;;;;;1.17;0.70;;;;;;;;;;4931416;29;20551;-80
2022/07/02 13:17:44;;;;;;;1.20;1.20;;;;;;;;;;4931601;29;20491;-82
2022/07/02 13:20:13;;;;;;;0.63;0.63;;;;;;;;;;4935116;29;20494;-78
2022/07/02 13:22:40;;;;;;;0.60;0.60;;;;;;;;;;4929328;29;20431;-80
2022/07/02 13:25:07;;;;;;;1.37;0.60;;;;;;;;;;4933842;29;20498;-80
2022/07/02 13:27:33;;;;;;;5.70;0.70;;;;;;;;;;4929477;29;20455;-82
2022/07/02 13:29:59;;;;;;;0.63;0.63;;;;;;;;;;4929645;29;20439;-83
2022/07/02 13:32:25;;;;;;;0.67;0.67;;;;;;;;;;4933105;29;20788;-78
2022/07/02 13:34:51;;;;;;;0.77;0.77;;;;;;;;;;4931592;29;20487;-77
2022/07/02 13:37:18;;;;;;;1.03;0.90;;;;;;;;;;4931078;29;20456;-77
2022/07/02 13:39:44;;;;;;;0.77;0.77;;;;;;;;;;4933301;29;20960;-82
2022/07/02 13:42:10;;;;;;;0.73;0.60;;;;;;;;;;4932889;29;20979;-83
2022/07/02 13:44:36;;;;;;;0.70;0.70;;;;;;;;;;4932041;29;20448;-84
2022/07/02 13:47:03;;;;;;;0.63;0.63;;;;;;;;;;4933469;29;20419;-81
2022/07/02 13:49:29;;;;;;;2.00;0.67;;;;;;;;;;4934908;29;20424;-82
2022/07/02 13:51:55;;;;;;;0.60;0.60;;;;;;;;;;4933301;29;20467;-82
2022/07/02 13:54:21;;;;;;;0.80;0.80;;;;;;;;;;4934161;29;20491;-80
2022/07/02 13:56:47;;;;;;;0.60;0.60;;;;;;;;;;4933316;29;20432;-80
2022/07/02 13:59:13;;;;;;;0.53;0.53;;;;;;;;;;4931211;29;20463;-82
2022/07/02 14:01:39;;;;;;;0.63;0.63;;;;;;;;;;4931173;29;20522;-83
2022/07/02 14:04:05;;;;;;;0.70;0.70;;;;;;;;;;4934136;29;20456;-81
2022/07/02 14:06:31;;;;;;;0.50;0.50;;;;;;;;;;4933993;29;20916;-81
2022/07/02 14:08:57;;;;;;;0.67;0.67;;;;;;;;;;4933409;29;20424;-83
2022/07/02 14:11:24;;;;;;;0.70;0.70;;;;;;;;;;4933071;29;20458;-79
2022/07/02 14:13:50;;;;;;;0.87;0.87;;;;;;;;;;4932137;29;20443;-82
2022/07/02 14:16:16;;;;;;;0.63;0.63;;;;;;;;;;4932843;29;20467;-79
2022/07/02 14:18:42;;;;;;;0.70;0.70;;;;;;;;;;4932469;29;20455;-80
2022/07/02 14:21:08;;;;;;;0.60;0.60;;;;;;;;;;4932752;29;20436;-80
2022/07/02 14:23:34;;;;;;;0.80;0.80;;;;;;;;;;4932880;29;20867;-79
2022/07/02 14:26:01;;;;;;;0.70;0.70;;;;;;;;;;4932267;29;20994;-79
2022/07/02 14:28:29;;;;;;;0.60;0.60;;;;;;;;;;4932498;29;20500;-78
2022/07/02 14:30:55;;;;;;;0.60;0.60;;;;;;;;;;4932165;29;20462;-82
2022/07/02 14:33:21;;;;;;;0.50;0.50;;;;;;;;;;4932759;29;20524;-81
2022/07/02 14:35:47;;;;;;;0.60;0.60;;;;;;;;;;4932448;29;20552;-81
2022/07/02 14:38:14;;;;;;;0.50;0.50;;;;;;;;;;4932965;29;20592;-82
2022/07/02 14:40:40;;;;;;;0.70;0.70;;;;;;;;;;4933291;29;20436;-82
2022/07/02 14:43:06;;;;;;;2.83;0.70;;;;;;;;;;4933884;29;20515;-79
2022/07/02 14:45:32;;;;;;;0.60;0.60;;;;;;;;;;4931353;29;20524;-78
2022/07/02 14:47:58;;;;;;;0.67;0.67;;;;;;;;;;4933730;29;20510;-78
2022/07/02 14:50:24;;;;;;;0.70;0.70;;;;;;;;;;4929544;29;20451;-80
2022/07/02 14:52:50;;;;;;;22.20;19.57;;;;;;;;;;4932556;29;20435;-80